BIVO/VPN METAR and TAF weather

Enter ICAO airport designator
Station Type Date Time Source
BIVO METAR 2022/01/27 15:00 UTC NOAA

BIVO 271500Z 24010KT CAVOK M01/M08 Q1012


Station Type Date Time Source
BIVO Decoded METAR 2022/01/27 15:00 UTC NOAA

Skjaldthingsstadir, Iceland (BIVO) 65-42N 014-49W 48M
Jan 27, 2022 - 10:00 AM EST / 2022.01.27 1500 UTC
Wind: from the WSW (240 degrees) at 12 MPH (10 KT):0
Visibility: greater than 7 mile(s):0
Temperature: 30 F (-1 C)
Windchill: 19 F (-7 C):1
Dew Point: 17 F (-8 C)
Relative Humidity: 58%
Pressure (altimeter): 29.88 in. Hg (1012 hPa)
ob: BIVO 271500Z 24010KT CAVOK M01/M08 Q1012
cycle: 15

Station Type Date Time Source
BIVO TAF UTC NOAA

Error!

Example: see airport list